Time;durP1;ratioP1;P1;durP2;ratioP2;P2;SDS_P1;SDS_P2;PMS_P1;PMS_P2;Temp;Humidity;BMP_temperature;BMP_pressure;BME280_temperature;BME280_humidity;BME280_pressure;Samples;Min_cycle;Max_cycle;Signal;HPM_P1;HPM_P2
2021/11/04 00:01:38;;;;;;;5.68;3.10;;;;;;;;;;5035616;28;20459;-54
2021/11/04 00:04:04;;;;;;;5.80;2.88;;;;;;;;;;5034849;28;20083;-54
2021/11/04 00:06:31;;;;;;;4.03;3.10;;;;;;;;;;5034962;28;20028;-54
2021/11/04 00:08:57;;;;;;;6.55;3.08;;;;;;;;;;5035082;28;20033;-54
2021/11/04 00:11:23;;;;;;;3.05;2.25;;;;;;;;;;5035484;28;20116;-54
2021/11/04 00:13:49;;;;;;;3.83;2.47;;;;;;;;;;5034793;28;20064;-54
2021/11/04 00:16:15;;;;;;;4.35;2.72;;;;;;;;;;5033548;28;20417;-55
2021/11/04 00:18:41;;;;;;;5.72;3.03;;;;;;;;;;5035043;28;20466;-54
2021/11/04 00:21:07;;;;;;;4.05;2.60;;;;;;;;;;5034750;28;20498;-55
2021/11/04 00:23:34;;;;;;;2.17;1.83;;;;;;;;;;5034164;28;20147;-54
2021/11/04 00:26:00;;;;;;;4.53;2.55;;;;;;;;;;5033372;28;20017;-55
2021/11/04 00:28:26;;;;;;;3.80;2.30;;;;;;;;;;5033673;28;20083;-55
2021/11/04 00:30:52;;;;;;;4.22;2.63;;;;;;;;;;5035061;28;20044;-55
2021/11/04 00:33:18;;;;;;;3.92;2.17;;;;;;;;;;5033732;28;20018;-54
2021/11/04 00:35:44;;;;;;;4.13;2.80;;;;;;;;;;5034727;28;20091;-54
2021/11/04 00:38:10;;;;;;;3.90;2.08;;;;;;;;;;5034907;28;20125;-55
2021/11/04 00:40:36;;;;;;;5.15;2.42;;;;;;;;;;5034768;28;20099;-54
2021/11/04 00:43:03;;;;;;;3.15;2.55;;;;;;;;;;5033886;28;20025;-55
2021/11/04 00:45:29;;;;;;;4.30;2.60;;;;;;;;;;5034601;28;20471;-54
2021/11/04 00:47:55;;;;;;;4.78;2.55;;;;;;;;;;5034467;28;20036;-55
2021/11/04 00:50:22;;;;;;;3.28;2.03;;;;;;;;;;5033097;28;20022;-54
2021/11/04 00:52:48;;;;;;;2.70;2.10;;;;;;;;;;5034875;28;20241;-54
2021/11/04 00:55:15;;;;;;;3.58;2.08;;;;;;;;;;5033833;28;20093;-54
2021/11/04 00:57:41;;;;;;;3.58;2.38;;;;;;;;;;5034191;28;20033;-55
2021/11/04 01:00:09;;;;;;;2.70;2.05;;;;;;;;;;5034290;28;20021;-54
2021/11/04 01:02:35;;;;;;;2.90;2.00;;;;;;;;;;5034050;28;20494;-55
2021/11/04 01:05:02;;;;;;;5.00;2.47;;;;;;;;;;5033697;28;20052;-54
2021/11/04 01:07:28;;;;;;;2.75;1.73;;;;;;;;;;5034368;28;20379;-54
2021/11/04 01:09:54;;;;;;;3.63;2.40;;;;;;;;;;5034000;28;20490;-54
2021/11/04 01:12:19;;;;;;;3.40;1.95;;;;;;;;;;5034084;28;20108;-55
2021/11/04 01:14:45;;;;;;;3.03;2.13;;;;;;;;;;5033551;28;20111;-54
2021/11/04 01:17:12;;;;;;;3.38;2.33;;;;;;;;;;5033555;28;20029;-55
2021/11/04 01:19:38;;;;;;;2.35;1.88;;;;;;;;;;5033723;28;20033;-55
2021/11/04 01:22:04;;;;;;;3.55;1.63;;;;;;;;;;5032460;28;20451;-55
2021/11/04 01:24:30;;;;;;;4.18;2.13;;;;;;;;;;5033288;28;20034;-54
2021/11/04 01:26:56;;;;;;;2.38;1.77;;;;;;;;;;5032419;28;20034;-54
2021/11/04 01:29:22;;;;;;;2.15;1.63;;;;;;;;;;5033847;28;20079;-54
2021/11/04 01:31:48;;;;;;;1.80;1.50;;;;;;;;;;5033679;28;20486;-55
2021/11/04 01:34:14;;;;;;;2.25;1.73;;;;;;;;;;5032830;28;20513;-54
2021/11/04 01:36:40;;;;;;;1.90;1.50;;;;;;;;;;5032953;28;20041;-55
2021/11/04 01:39:06;;;;;;;3.03;1.33;;;;;;;;;;5033752;28;20057;-55
2021/11/04 01:41:32;;;;;;;2.78;2.03;;;;;;;;;;5032976;28;20506;-55
2021/11/04 01:43:58;;;;;;;1.63;1.48;;;;;;;;;;5031258;28;20113;-55
2021/11/04 01:46:25;;;;;;;5.80;1.67;;;;;;;;;;5033509;28;20028;-54
2021/11/04 01:48:51;;;;;;;2.95;1.90;;;;;;;;;;5033574;28;20108;-54
2021/11/04 01:51:18;;;;;;;3.38;1.90;;;;;;;;;;5033235;28;20486;-55
2021/11/04 01:53:44;;;;;;;2.58;1.50;;;;;;;;;;5032613;28;20049;-54
2021/11/04 01:56:10;;;;;;;2.25;1.67;;;;;;;;;;5032979;28;20029;-54
2021/11/04 01:58:36;;;;;;;1.60;1.50;;;;;;;;;;5033173;28;20042;-54
2021/11/04 02:01:03;;;;;;;2.50;1.63;;;;;;;;;;5033403;28;20030;-54
2021/11/04 02:03:32;;;;;;;1.52;1.42;;;;;;;;;;5032678;28;20022;-54
2021/11/04 02:06:16;;;;;;;1.88;1.30;;;;;;;;;;5032873;28;20036;-54
2021/11/04 02:08:56;;;;;;;2.85;1.63;;;;;;;;;;5032755;28;20021;-54
2021/11/04 02:11:23;;;;;;;3.38;1.67;;;;;;;;;;5032878;28;20100;-54
2021/11/04 02:13:55;;;;;;;5.32;1.58;;;;;;;;;;5032358;28;20029;-54
2021/11/04 02:16:23;;;;;;;3.95;1.50;;;;;;;;;;5032712;28;20037;-54
2021/11/04 02:18:51;;;;;;;3.97;1.52;;;;;;;;;;5032809;28;20064;-54
2021/11/04 02:21:35;;;;;;;3.55;1.90;;;;;;;;;;5032561;28;20026;-55
2021/11/04 02:24:01;;;;;;;2.00;1.52;;;;;;;;;;5032328;28;20029;-55
2021/11/04 02:26:27;;;;;;;5.28;2.13;;;;;;;;;;5031874;28;20103;-54
2021/11/04 02:28:54;;;;;;;1.85;1.63;;;;;;;;;;5032937;28;20479;-54
2021/11/04 02:31:20;;;;;;;2.53;1.60;;;;;;;;;;5032557;28;20033;-54
2021/11/04 02:33:46;;;;;;;2.17;1.77;;;;;;;;;;5030628;28;20025;-54
2021/11/04 02:36:12;;;;;;;3.75;1.90;;;;;;;;;;5032857;28;20459;-55
2021/11/04 02:38:39;;;;;;;4.72;2.40;;;;;;;;;;5032834;28;20078;-55
2021/11/04 02:41:06;;;;;;;4.05;2.05;;;;;;;;;;5032987;28;20351;-55
2021/11/04 02:43:33;;;;;;;4.32;2.50;;;;;;;;;;5031784;28;20030;-55
2021/11/04 02:46:00;;;;;;;3.40;2.70;;;;;;;;;;5032804;28;20025;-55
2021/11/04 02:48:26;;;;;;;4.90;2.60;;;;;;;;;;5034508;28;20079;-54
2021/11/04 02:50:53;;;;;;;3.95;2.60;;;;;;;;;;5036417;28;20034;-55
2021/11/04 02:53:19;;;;;;;3.70;2.72;;;;;;;;;;5035973;28;20072;-54
2021/11/04 02:55:45;;;;;;;5.53;2.63;;;;;;;;;;5036998;28;20120;-55
2021/11/04 02:58:13;;;;;;;3.40;2.70;;;;;;;;;;5036464;28;20042;-54
2021/11/04 03:00:40;;;;;;;4.05;2.10;;;;;;;;;;5036376;28;20021;-54
2021/11/04 03:03:06;;;;;;;3.42;2.33;;;;;;;;;;5035729;28;20109;-54
2021/11/04 03:05:32;;;;;;;4.25;2.55;;;;;;;;;;5036516;28;20052;-54
2021/11/04 03:07:58;;;;;;;3.50;2.67;;;;;;;;;;5036586;28;20036;-54
2021/11/04 03:10:24;;;;;;;4.65;3.20;;;;;;;;;;5035223;28;20066;-54
2021/11/04 03:12:50;;;;;;;4.93;3.08;;;;;;;;;;5034358;28;20029;-54
2021/11/04 03:15:21;;;;;;;6.32;3.22;;;;;;;;;;5035765;28;20459;-54
2021/11/04 03:17:51;;;;;;;4.82;2.65;;;;;;;;;;5036053;28;20495;-54
2021/11/04 03:20:18;;;;;;;5.00;3.03;;;;;;;;;;5036338;28;20033;-54
2021/11/04 03:22:45;;;;;;;5.50;3.00;;;;;;;;;;5035693;28;20021;-54
2021/11/04 03:25:11;;;;;;;5.00;2.67;;;;;;;;;;5034101;28;20608;-54
2021/11/04 03:27:39;;;;;;;4.25;2.80;;;;;;;;;;5036274;28;20014;-54
2021/11/04 03:30:06;;;;;;;4.35;2.97;;;;;;;;;;5036063;28;20029;-54
2021/11/04 03:32:32;;;;;;;6.15;2.53;;;;;;;;;;5035875;28;20025;-55
2021/11/04 03:34:58;;;;;;;5.18;2.85;;;;;;;;;;5035467;28;20022;-54
2021/11/04 03:37:27;;;;;;;7.53;3.60;;;;;;;;;;5035844;28;20124;-54
2021/11/04 03:39:53;;;;;;;3.35;2.35;;;;;;;;;;5035629;28;20030;-54
2021/11/04 03:42:20;;;;;;;4.22;3.00;;;;;;;;;;5035772;28;20053;-54
2021/11/04 03:44:46;;;;;;;8.65;3.13;;;;;;;;;;5034981;28;20068;-55
2021/11/04 03:47:15;;;;;;;6.25;3.15;;;;;;;;;;5035645;28;20033;-55
2021/11/04 03:49:42;;;;;;;4.80;3.00;;;;;;;;;;5035411;28;20356;-54
2021/11/04 03:52:08;;;;;;;4.25;2.65;;;;;;;;;;5035275;28;20033;-55
2021/11/04 03:54:34;;;;;;;5.60;2.63;;;;;;;;;;5037533;28;20021;-54
2021/11/04 03:57:01;;;;;;;4.13;2.20;;;;;;;;;;5055230;28;20435;-55
2021/11/04 03:59:27;;;;;;;4.72;2.50;;;;;;;;;;5054541;28;20103;-54
2021/11/04 04:01:54;;;;;;;6.30;2.50;;;;;;;;;;5054803;28;20025;-54
2021/11/04 04:04:20;;;;;;;3.50;2.08;;;;;;;;;;5053164;28;20074;-54
2021/11/04 04:06:54;;;;;;;2.40;2.13;;;;;;;;;;5055167;28;20056;-54
2021/11/04 04:09:21;;;;;;;3.05;2.10;;;;;;;;;;5055139;28;20076;-55
2021/11/04 04:11:47;;;;;;;4.65;2.35;;;;;;;;;;5054857;28;20171;-54
2021/11/04 04:14:13;;;;;;;3.25;2.40;;;;;;;;;;5054303;28;20029;-54
2021/11/04 04:16:39;;;;;;;8.55;2.60;;;;;;;;;;5053017;28;20063;-54
2021/11/04 04:19:05;;;;;;;7.50;2.80;;;;;;;;;;5055066;28;20033;-55
2021/11/04 04:21:31;;;;;;;3.72;2.35;;;;;;;;;;5053640;28;20040;-55
2021/11/04 04:23:57;;;;;;;2.85;2.17;;;;;;;;;;5054278;28;20033;-54
2021/11/04 04:26:23;;;;;;;3.45;2.25;;;;;;;;;;5053355;28;20021;-54
2021/11/04 04:28:49;;;;;;;3.05;2.28;;;;;;;;;;5054953;28;20021;-55
2021/11/04 04:31:15;;;;;;;2.60;2.13;;;;;;;;;;5054431;28;20489;-55
2021/11/04 04:33:41;;;;;;;3.80;2.25;;;;;;;;;;5054336;28;20067;-54
2021/11/04 04:36:07;;;;;;;6.10;2.17;;;;;;;;;;5054512;28;20060;-55
2021/11/04 04:38:34;;;;;;;4.45;2.00;;;;;;;;;;5054424;28;20067;-55
2021/11/04 04:41:00;;;;;;;2.75;1.98;;;;;;;;;;5054275;28;20449;-55
2021/11/04 04:43:26;;;;;;;1.88;1.35;;;;;;;;;;5053691;28;20116;-54
2021/11/04 04:45:52;;;;;;;2.10;1.50;;;;;;;;;;5054124;28;20049;-55
2021/11/04 04:48:18;;;;;;;2.08;1.15;;;;;;;;;;5054406;28;20474;-55
2021/11/04 04:50:44;;;;;;;3.13;1.35;;;;;;;;;;5053902;28;20031;-54
2021/11/04 04:53:10;;;;;;;1.40;1.00;;;;;;;;;;5053621;28;20033;-54
2021/11/04 04:55:36;;;;;;;1.52;1.25;;;;;;;;;;5054288;28;20040;-55
2021/11/04 04:58:02;;;;;;;1.25;1.00;;;;;;;;;;5052970;28;20033;-54
2021/11/04 05:00:29;;;;;;;1.23;0.98;;;;;;;;;;5053802;28;20032;-55
2021/11/04 05:02:55;;;;;;;1.83;0.85;;;;;;;;;;5053553;28;20035;-54
2021/11/04 05:05:21;;;;;;;0.80;0.80;;;;;;;;;;5054370;28;20024;-54
2021/11/04 05:07:48;;;;;;;0.73;0.73;;;;;;;;;;5053746;28;20036;-55
2021/11/04 05:10:14;;;;;;;0.45;0.45;;;;;;;;;;5054047;28;20475;-54
2021/11/04 05:12:42;;;;;;;1.83;1.10;;;;;;;;;;5053005;28;20040;-55
2021/11/04 05:15:08;;;;;;;0.82;0.68;;;;;;;;;;5052971;28;20028;-55
2021/11/04 05:17:37;;;;;;;0.80;0.77;;;;;;;;;;5053575;28;20083;-54
2021/11/04 05:20:07;;;;;;;0.70;0.60;;;;;;;;;;5053749;28;20017;-54
2021/11/04 05:22:33;;;;;;;0.60;0.60;;;;;;;;;;5053521;28;20434;-54
2021/11/04 05:24:59;;;;;;;0.60;0.60;;;;;;;;;;5051957;28;20025;-55
2021/11/04 05:27:29;;;;;;;0.70;0.70;;;;;;;;;;5053774;28;20121;-54
2021/11/04 05:29:55;;;;;;;;;;;;;;;;;;5052670;28;20362;-55
2021/11/04 05:32:28;;;;;;;0.57;0.57;;;;;;;;;;5090325;28;20859;-56
2021/11/04 05:34:54;;;;;;;0.60;0.60;;;;;;;;;;5089310;28;20082;-55
2021/11/04 05:37:20;;;;;;;0.77;0.65;;;;;;;;;;5090487;28;20032;-55
2021/11/04 05:39:46;;;;;;;0.70;0.70;;;;;;;;;;5090176;28;20032;-55
2021/11/04 05:42:12;;;;;;;0.60;0.60;;;;;;;;;;5090462;28;20102;-55
2021/11/04 05:44:38;;;;;;;0.50;0.50;;;;;;;;;;5088162;28;20032;-56
2021/11/04 05:47:06;;;;;;;0.80;0.80;;;;;;;;;;5090187;28;20054;-55
2021/11/04 05:49:32;;;;;;;0.98;0.88;;;;;;;;;;5088161;28;20401;-56
2021/11/04 05:51:58;;;;;;;1.50;1.02;;;;;;;;;;5087160;28;20085;-55
2021/11/04 05:54:24;;;;;;;1.17;1.08;;;;;;;;;;5086706;28;20032;-55
2021/11/04 05:56:51;;;;;;;2.92;1.65;;;;;;;;;;5089607;28;20454;-56
2021/11/04 05:59:17;;;;;;;1.60;1.17;;;;;;;;;;5089939;28;20033;-55
2021/11/04 06:01:43;;;;;;;2.03;1.17;;;;;;;;;;5089770;28;20054;-55
2021/11/04 06:04:09;;;;;;;1.95;1.35;;;;;;;;;;5085811;28;20103;-55
2021/11/04 06:06:35;;;;;;;2.17;1.00;;;;;;;;;;5089604;28;20466;-56
2021/11/04 06:09:01;;;;;;;2.67;1.20;;;;;;;;;;5089715;28;20099;-56
2021/11/04 06:11:27;;;;;;;2.08;1.23;;;;;;;;;;5089576;28;20064;-52
2021/11/04 06:13:53;;;;;;;1.70;1.38;;;;;;;;;;5088680;28;20213;-52
2021/11/04 06:16:19;;;;;;;1.40;1.30;;;;;;;;;;5089654;28;20350;-52
2021/11/04 06:18:45;;;;;;;1.65;1.10;;;;;;;;;;5089470;28;20020;-53
2021/11/04 06:21:14;;;;;;;1.70;1.10;;;;;;;;;;5089788;28;20032;-52
2021/11/04 06:23:41;;;;;;;2.08;1.10;;;;;;;;;;5088615;28;20024;-52
2021/11/04 06:26:07;;;;;;;2.30;1.55;;;;;;;;;;5088897;28;20035;-53
2021/11/04 06:28:33;;;;;;;1.70;1.33;;;;;;;;;;5089318;28;20016;-53
2021/11/04 06:30:59;;;;;;;1.85;1.60;;;;;;;;;;5080840;28;20485;-53
2021/11/04 06:33:25;;;;;;;2.30;1.65;;;;;;;;;;5088553;28;20032;-53
2021/11/04 06:35:54;;;;;;;1.40;1.30;;;;;;;;;;5089762;28;20334;-52
2021/11/04 06:38:21;;;;;;;3.40;1.42;;;;;;;;;;5089257;28;20119;-53
2021/11/04 06:40:47;;;;;;;2.03;1.38;;;;;;;;;;5088075;28;20095;-53
2021/11/04 06:43:14;;;;;;;1.55;1.45;;;;;;;;;;5070255;28;20059;-53
2021/11/04 06:45:41;;;;;;;2.20;1.35;;;;;;;;;;5072958;28;20099;-53
2021/11/04 06:48:08;;;;;;;2.17;1.27;;;;;;;;;;5075338;28;20025;-53
2021/11/04 06:50:35;;;;;;;1.63;1.40;;;;;;;;;;5075482;28;20335;-53
2021/11/04 06:53:06;;;;;;;1.40;1.30;;;;;;;;;;5074731;28;20032;-52
2021/11/04 06:55:32;;;;;;;2.15;1.40;;;;;;;;;;5074963;28;20378;-55
2021/11/04 06:58:03;;;;;;;2.30;1.42;;;;;;;;;;5074971;28;20029;-53
2021/11/04 07:00:33;;;;;;;3.85;1.63;;;;;;;;;;5075999;28;20028;-52
2021/11/04 07:03:14;;;;;;;2.15;1.50;;;;;;;;;;5074522;28;20028;-52
2021/11/04 07:05:44;;;;;;;1.50;1.40;;;;;;;;;;5075254;28;20458;-52
2021/11/04 07:08:19;;;;;;;1.98;1.60;;;;;;;;;;5069897;28;20554;-53
2021/11/04 07:10:46;;;;;;;2.30;1.30;;;;;;;;;;5074911;28;20048;-53
2021/11/04 07:13:13;;;;;;;4.22;1.77;;;;;;;;;;5074255;28;20024;-52
2021/11/04 07:15:40;;;;;;;2.05;1.77;;;;;;;;;;5075172;28;20052;-52
2021/11/04 07:18:07;;;;;;;3.20;2.17;;;;;;;;;;5074717;28;20021;-53
2021/11/04 07:20:33;;;;;;;2.67;1.80;;;;;;;;;;5075043;28;20028;-52
2021/11/04 07:23:02;;;;;;;5.97;1.95;;;;;;;;;;5074038;28;20492;-53
2021/11/04 07:25:30;;;;;;;3.80;2.38;;;;;;;;;;5074008;28;20013;-53
2021/11/04 07:28:01;;;;;;;2.63;1.65;;;;;;;;;;5074212;28;20020;-53
2021/11/04 07:30:29;;;;;;;2.67;1.92;;;;;;;;;;5074774;28;20028;-52
2021/11/04 07:32:56;;;;;;;4.30;1.80;;;;;;;;;;5074045;28;20028;-53
2021/11/04 07:35:23;;;;;;;2.10;1.73;;;;;;;;;;5074555;28;20028;-52
2021/11/04 07:37:50;;;;;;;2.90;1.73;;;;;;;;;;5074463;28;20035;-52
2021/11/04 07:40:17;;;;;;;2.10;1.83;;;;;;;;;;5073505;28;20877;-54
2021/11/04 07:42:43;;;;;;;2.53;1.60;;;;;;;;;;5074051;28;20332;-53
2021/11/04 07:45:09;;;;;;;1.70;1.33;;;;;;;;;;5073910;28;20016;-52
2021/11/04 07:47:36;;;;;;;1.50;1.38;;;;;;;;;;5074335;28;20462;-52
2021/11/04 07:50:03;;;;;;;2.42;1.52;;;;;;;;;;5074002;28;20032;-52
2021/11/04 07:52:29;;;;;;;2.45;1.23;;;;;;;;;;5074239;28;20103;-52
2021/11/04 07:54:55;;;;;;;2.70;1.30;;;;;;;;;;5072314;28;20112;-53
2021/11/04 07:57:21;;;;;;;1.63;1.48;;;;;;;;;;5074089;28;20029;-52
2021/11/04 07:59:47;;;;;;;1.83;1.42;;;;;;;;;;5074181;28;20027;-52
2021/11/04 08:02:13;;;;;;;1.05;0.95;;;;;;;;;;5073970;28;20028;-52
2021/11/04 08:04:39;;;;;;;1.10;1.05;;;;;;;;;;5073678;28;20021;-53
2021/11/04 08:07:05;;;;;;;1.83;1.50;;;;;;;;;;5074232;28;20029;-52
2021/11/04 08:09:31;;;;;;;2.58;1.50;;;;;;;;;;5073609;28;20359;-53
2021/11/04 08:11:58;;;;;;;2.15;1.60;;;;;;;;;;5073685;28;20036;-53
2021/11/04 08:14:24;;;;;;;3.22;1.17;;;;;;;;;;5073002;28;20031;-53
2021/11/04 08:16:50;;;;;;;2.17;1.35;;;;;;;;;;5074014;28;20107;-52
2021/11/04 08:19:17;;;;;;;1.98;1.20;;;;;;;;;;5073772;28;20042;-53
2021/11/04 08:21:43;;;;;;;1.63;1.33;;;;;;;;;;5073394;28;20358;-52
2021/11/04 08:24:09;;;;;;;1.60;1.30;;;;;;;;;;5071466;28;20021;-52
2021/11/04 08:26:36;;;;;;;2.28;1.10;;;;;;;;;;5073640;28;20025;-52
2021/11/04 08:29:02;;;;;;;1.75;1.23;;;;;;;;;;5073668;28;20044;-52
2021/11/04 08:31:28;;;;;;;1.63;1.20;;;;;;;;;;5073539;28;20040;-52
2021/11/04 08:33:54;;;;;;;1.58;1.45;;;;;;;;;;5072629;28;20450;-52
2021/11/04 08:36:20;;;;;;;1.05;0.95;;;;;;;;;;5073020;28;20069;-52
2021/11/04 08:38:47;;;;;;;1.80;1.38;;;;;;;;;;5073652;28;20017;-52
2021/11/04 08:41:13;;;;;;;1.30;1.20;;;;;;;;;;5073145;28;20435;-52
2021/11/04 08:43:39;;;;;;;1.65;1.20;;;;;;;;;;5072662;28;20028;-53
2021/11/04 08:46:06;;;;;;;1.55;1.13;;;;;;;;;;5073430;28;20086;-53
2021/11/04 08:48:32;;;;;;;0.95;0.95;;;;;;;;;;5073024;28;20454;-52
2021/11/04 08:50:58;;;;;;;1.10;1.05;;;;;;;;;;5073416;28;20046;-52
2021/11/04 08:53:24;;;;;;;1.10;1.00;;;;;;;;;;5072408;28;20520;-53
2021/11/04 08:55:50;;;;;;;0.95;0.88;;;;;;;;;;5073416;28;20048;-53
2021/11/04 08:58:16;;;;;;;1.27;1.13;;;;;;;;;;5072964;28;20067;-52
2021/11/04 09:00:42;;;;;;;1.48;1.20;;;;;;;;;;5073514;28;20016;-53
2021/11/04 09:03:09;;;;;;;1.27;1.10;;;;;;;;;;5072001;28;20030;-53
2021/11/04 09:05:35;;;;;;;3.15;1.17;;;;;;;;;;5073105;28;20044;-53
2021/11/04 09:08:01;;;;;;;1.58;1.10;;;;;;;;;;5072476;28;20543;-52
2021/11/04 09:10:27;;;;;;;2.33;1.13;;;;;;;;;;5072900;28;20067;-53
2021/11/04 09:12:54;;;;;;;1.70;1.13;;;;;;;;;;5072221;28;20055;-53
2021/11/04 09:15:20;;;;;;;1.35;1.13;;;;;;;;;;5062809;28;20025;-53
2021/11/04 09:17:46;;;;;;;1.17;1.00;;;;;;;;;;5067744;28;20046;-53
2021/11/04 09:20:14;;;;;;;3.03;1.15;;;;;;;;;;5072615;28;20077;-52
2021/11/04 09:22:41;;;;;;;1.75;0.90;;;;;;;;;;5071642;28;20332;-52
2021/11/04 09:25:08;;;;;;;3.72;0.80;;;;;;;;;;5070600;28;20392;-53
2021/11/04 09:27:34;;;;;;;1.35;0.93;;;;;;;;;;5072648;28;20449;-53
2021/11/04 09:30:01;;;;;;;1.00;0.73;;;;;;;;;;5071601;28;20461;-53
2021/11/04 09:32:27;;;;;;;1.45;1.10;;;;;;;;;;5072558;28;20036;-52
2021/11/04 09:34:53;;;;;;;1.27;0.95;;;;;;;;;;5071951;28;20031;-52
2021/11/04 09:37:19;;;;;;;5.40;1.80;;;;;;;;;;5072227;28;20025;-52
2021/11/04 09:39:48;;;;;;;2.08;1.10;;;;;;;;;;5072285;28;20473;-53
2021/11/04 09:42:16;;;;;;;1.48;1.10;;;;;;;;;;5072244;28;20035;-53
2021/11/04 09:44:43;;;;;;;6.80;2.25;;;;;;;;;;5070841;28;20028;-52
2021/11/04 09:47:09;;;;;;;4.28;1.65;;;;;;;;;;5072058;28;20031;-53
2021/11/04 09:49:35;;;;;;;2.63;1.50;;;;;;;;;;5072055;28;20028;-53
2021/11/04 09:52:01;;;;;;;1.88;1.15;;;;;;;;;;5056264;28;20481;-53
2021/11/04 09:54:28;;;;;;;4.85;1.70;;;;;;;;;;5071567;28;20025;-52
2021/11/04 09:56:54;;;;;;;5.85;2.78;;;;;;;;;;5070346;28;20450;-54
2021/11/04 09:59:20;;;;;;;4.05;1.92;;;;;;;;;;5069205;28;20023;-52
2021/11/04 10:01:47;;;;;;;3.65;1.27;;;;;;;;;;5052040;28;20029;-53
2021/11/04 10:04:13;;;;;;;2.60;1.48;;;;;;;;;;5051516;28;20021;-52
2021/11/04 10:06:40;;;;;;;1.95;1.45;;;;;;;;;;5052114;28;20032;-52
2021/11/04 10:09:10;;;;;;;1.20;1.10;;;;;;;;;;5051965;28;20028;-53
2021/11/04 10:11:37;;;;;;;2.78;1.40;;;;;;;;;;5051812;28;20124;-53
2021/11/04 10:14:05;;;;;;;1.13;0.95;;;;;;;;;;5050891;28;20035;-53
2021/11/04 10:16:32;;;;;;;1.27;1.17;;;;;;;;;;5052370;28;20032;-53
2021/11/04 10:19:02;;;;;;;1.20;1.10;;;;;;;;;;5055323;28;20477;-52
2021/11/04 10:21:28;;;;;;;0.70;0.70;;;;;;;;;;5055746;28;20051;-52
2021/11/04 10:23:54;;;;;;;3.70;0.80;;;;;;;;;;5060931;28;20025;-53
2021/11/04 10:26:25;;;;;;;1.42;1.17;;;;;;;;;;5075337;28;20458;-53
2021/11/04 10:28:52;;;;;;;2.05;1.15;;;;;;;;;;5075193;28;20074;-53
2021/11/04 10:31:20;;;;;;;4.60;1.10;;;;;;;;;;5075722;28;20044;-52
2021/11/04 10:33:47;;;;;;;0.88;0.73;;;;;;;;;;5074945;28;20382;-52
2021/11/04 10:36:18;;;;;;;2.35;0.57;;;;;;;;;;5075657;28;20342;-52
2021/11/04 10:38:44;;;;;;;;;;;;;;;;;;5075639;28;20017;-53
2021/11/04 10:41:21;;;;;;;2.53;0.65;;;;;;;;;;5075863;28;19950;-52
2021/11/04 10:43:48;;;;;;;1.05;0.88;;;;;;;;;;5074577;28;20103;-52
2021/11/04 10:46:16;;;;;;;3.03;0.70;;;;;;;;;;5075557;28;20024;-53
2021/11/04 10:48:42;;;;;;;0.60;0.50;;;;;;;;;;5075848;28;20123;-52
2021/11/04 10:51:16;;;;;;;1.13;0.75;;;;;;;;;;5074630;28;20101;-52
2021/11/04 10:53:42;;;;;;;0.60;0.60;;;;;;;;;;5074686;28;20044;-52
2021/11/04 10:56:15;;;;;;;0.82;0.73;;;;;;;;;;5073605;28;20025;-53
2021/11/04 10:58:41;;;;;;;0.68;0.68;;;;;;;;;;5074769;28;20477;-53
2021/11/04 11:01:07;;;;;;;0.60;0.60;;;;;;;;;;5068985;28;20021;-53
2021/11/04 11:03:33;;;;;;;0.82;0.82;;;;;;;;;;5054321;28;20844;-52
2021/11/04 11:06:06;;;;;;;1.25;0.95;;;;;;;;;;5065829;28;20021;-52
2021/11/04 11:08:32;;;;;;;1.02;0.77;;;;;;;;;;5071503;28;20021;-53
2021/11/04 11:10:58;;;;;;;1.65;0.90;;;;;;;;;;5074392;28;20082;-52
2021/11/04 11:13:24;;;;;;;1.75;1.10;;;;;;;;;;5071147;28;20020;-53
2021/11/04 11:15:53;;;;;;;1.00;0.90;;;;;;;;;;5074673;28;20024;-53
2021/11/04 11:18:21;;;;;;;1.27;0.70;;;;;;;;;;5075067;28;20020;-52
2021/11/04 11:20:48;;;;;;;0.88;0.75;;;;;;;;;;5074410;28;20346;-52
2021/11/04 11:23:17;;;;;;;1.65;0.80;;;;;;;;;;5074065;28;20039;-52
2021/11/04 11:25:44;;;;;;;1.48;0.85;;;;;;;;;;5074973;28;20029;-53
2021/11/04 11:28:10;;;;;;;4.30;0.82;;;;;;;;;;5073923;28;20028;-52
2021/11/04 11:30:36;;;;;;;3.00;0.90;;;;;;;;;;5068151;28;20075;-53
2021/11/04 11:33:21;;;;;;;0.70;0.70;;;;;;;;;;5073978;28;20115;-52
2021/11/04 11:36:06;;;;;;;1.20;0.85;;;;;;;;;;5074028;28;20498;-52
2021/11/04 11:38:32;;;;;;;4.32;0.80;;;;;;;;;;5074473;28;20016;-52
2021/11/04 11:41:02;;;;;;;1.30;0.70;;;;;;;;;;5073003;28;20029;-52
2021/11/04 11:43:47;;;;;;;1.02;0.70;;;;;;;;;;5071823;28;20178;-53
2021/11/04 11:46:15;;;;;;;1.13;0.82;;;;;;;;;;5061720;28;20072;-53
2021/11/04 11:48:40;;;;;;;1.02;0.80;;;;;;;;;;5073786;28;20032;-52
2021/11/04 11:51:07;;;;;;;1.67;0.70;;;;;;;;;;5074069;28;20093;-53
2021/11/04 11:53:38;;;;;;;0.50;0.50;;;;;;;;;;5071998;28;20362;-52
2021/11/04 11:56:06;;;;;;;2.60;0.77;;;;;;;;;;5071557;28;20033;-52
2021/11/04 11:58:45;;;;;;;0.90;0.70;;;;;;;;;;5074331;28;20040;-53
2021/11/04 12:01:16;;;;;;;4.85;0.60;;;;;;;;;;5067457;28;20028;-52
2021/11/04 12:03:43;;;;;;;0.57;0.57;;;;;;;;;;5073069;28;20033;-53
2021/11/04 12:06:09;;;;;;;0.60;0.60;;;;;;;;;;5074030;28;20028;-52
2021/11/04 12:08:36;;;;;;;0.50;0.50;;;;;;;;;;5073706;28;20020;-53
2021/11/04 12:11:04;;;;;;;0.70;0.50;;;;;;;;;;5073124;28;20033;-52
2021/11/04 12:13:45;;;;;;;0.52;0.52;;;;;;;;;;5073285;28;20013;-52
2021/11/04 12:16:19;;;;;;;0.60;0.60;;;;;;;;;;5067257;28;20032;-52
2021/11/04 12:18:53;;;;;;;0.50;0.50;;;;;;;;;;5073211;28;20401;-52
2021/11/04 12:21:23;;;;;;;0.63;0.63;;;;;;;;;;5073690;28;20020;-52
2021/11/04 12:23:49;;;;;;;;;;;;;;;;;;5073182;28;20051;-52
2021/11/04 12:26:15;;;;;;;0.40;0.40;;;;;;;;;;5073064;28;19935;-52
2021/11/04 12:28:49;;;;;;;3.95;0.70;;;;;;;;;;5073299;28;20424;-53
2021/11/04 12:31:16;;;;;;;2.25;0.85;;;;;;;;;;5073301;28;20044;-53
2021/11/04 12:33:42;;;;;;;1.02;0.93;;;;;;;;;;5071968;28;20027;-52
2021/11/04 12:36:08;;;;;;;2.38;1.05;;;;;;;;;;5073489;28;20028;-53
2021/11/04 12:38:42;;;;;;;0.93;0.85;;;;;;;;;;5073438;28;20021;-53
2021/11/04 12:41:12;;;;;;;1.02;0.93;;;;;;;;;;5071819;28;20031;-52
2021/11/04 12:43:38;;;;;;;1.88;1.15;;;;;;;;;;5072870;28;20070;-52
2021/11/04 12:46:15;;;;;;;1.50;0.85;;;;;;;;;;5073159;28;20111;-53
2021/11/04 12:48:44;;;;;;;1.10;1.00;;;;;;;;;;5072934;28;20025;-53
2021/11/04 12:51:11;;;;;;;1.35;1.13;;;;;;;;;;5072902;28;20374;-53
2021/11/04 12:53:52;;;;;;;1.02;0.80;;;;;;;;;;5072240;28;20024;-53
2021/11/04 12:56:18;;;;;;;1.45;1.10;;;;;;;;;;5070826;28;20043;-53
2021/11/04 12:58:49;;;;;;;1.52;1.20;;;;;;;;;;5073187;28;20107;-52
2021/11/04 13:01:15;;;;;;;1.58;1.38;;;;;;;;;;5072753;28;20406;-52
2021/11/04 13:03:41;;;;;;;2.45;1.27;;;;;;;;;;5071970;28;20111;-53
2021/11/04 13:06:07;;;;;;;1.85;1.30;;;;;;;;;;5073049;28;20355;-53
2021/11/04 13:08:33;;;;;;;1.27;0.90;;;;;;;;;;5072643;28;20055;-52
2021/11/04 13:11:02;;;;;;;0.82;0.80;;;;;;;;;;5072422;28;20335;-52
2021/11/04 13:13:28;;;;;;;1.38;0.98;;;;;;;;;;5072237;28;20020;-53
2021/11/04 13:15:54;;;;;;;1.50;1.20;;;;;;;;;;5072867;28;20083;-53
2021/11/04 13:18:20;;;;;;;1.08;0.98;;;;;;;;;;5072259;28;20028;-53
2021/11/04 13:20:49;;;;;;;1.52;0.90;;;;;;;;;;5072966;28;20111;-53
2021/11/04 13:23:17;;;;;;;1.77;1.20;;;;;;;;;;5072218;28;20466;-53
2021/11/04 13:25:48;;;;;;;1.23;0.85;;;;;;;;;;5072435;28;20017;-53
2021/11/04 13:28:14;;;;;;;2.65;1.50;;;;;;;;;;5071961;28;20031;-52
2021/11/04 13:30:44;;;;;;;1.77;1.25;;;;;;;;;;5072674;28;20028;-53
2021/11/04 13:33:13;;;;;;;2.35;1.33;;;;;;;;;;5071374;28;20037;-52
2021/11/04 13:35:41;;;;;;;2.30;1.85;;;;;;;;;;5072377;28;20016;-52
2021/11/04 13:38:17;;;;;;;2.75;1.85;;;;;;;;;;5072738;28;20103;-52
2021/11/04 13:40:43;;;;;;;2.72;1.30;;;;;;;;;;5072296;28;20025;-53
2021/11/04 13:43:10;;;;;;;2.25;1.58;;;;;;;;;;5071653;28;20469;-52
2021/11/04 13:45:37;;;;;;;3.47;1.80;;;;;;;;;;5073041;28;20025;-53
2021/11/04 13:48:03;;;;;;;4.03;1.40;;;;;;;;;;5072041;28;20020;-52
2021/11/04 13:50:37;;;;;;;3.70;1.90;;;;;;;;;;5072643;28;20029;-52
2021/11/04 13:53:11;;;;;;;2.17;1.83;;;;;;;;;;5073775;28;20109;-53
2021/11/04 13:55:37;;;;;;;1.90;1.50;;;;;;;;;;5074276;28;20055;-52
2021/11/04 13:58:03;;;;;;;3.40;1.83;;;;;;;;;;5075961;28;20111;-54
2021/11/04 14:00:32;;;;;;;1.92;1.35;;;;;;;;;;5076920;28;20033;-52
2021/11/04 14:03:00;;;;;;;1.83;1.63;;;;;;;;;;5075259;28;20024;-53
2021/11/04 14:05:44;;;;;;;1.85;1.40;;;;;;;;;;5076560;28;20023;-52
2021/11/04 14:08:11;;;;;;;1.52;1.30;;;;;;;;;;5076256;28;20020;-52
2021/11/04 14:10:37;;;;;;;2.95;1.73;;;;;;;;;;5075520;28;20074;-52
2021/11/04 14:13:03;;;;;;;2.75;1.77;;;;;;;;;;5075238;28;20029;-53
2021/11/04 14:15:37;;;;;;;1.52;1.40;;;;;;;;;;5069000;28;20025;-53
2021/11/04 14:18:03;;;;;;;2.30;1.63;;;;;;;;;;5067439;28;20028;-53
2021/11/04 14:20:30;;;;;;;1.65;1.40;;;;;;;;;;5076090;28;20446;-53
2021/11/04 14:22:57;;;;;;;3.63;2.20;;;;;;;;;;5075029;28;20038;-53
2021/11/04 14:25:23;;;;;;;3.55;1.80;;;;;;;;;;5074956;28;20032;-52
2021/11/04 14:27:53;;;;;;;4.03;1.60;;;;;;;;;;5075478;28;20029;-53
2021/11/04 14:30:20;;;;;;;1.65;1.55;;;;;;;;;;5076026;28;20044;-53
2021/11/04 14:32:48;;;;;;;2.65;1.80;;;;;;;;;;5072993;28;20083;-52
2021/11/04 14:35:14;;;;;;;2.75;1.50;;;;;;;;;;5071827;28;20024;-53
2021/11/04 14:37:40;;;;;;;2.53;1.50;;;;;;;;;;5075250;28;20073;-52
2021/11/04 14:40:06;;;;;;;2.10;1.77;;;;;;;;;;5074227;28;20025;-53
2021/11/04 14:42:34;;;;;;;1.42;1.33;;;;;;;;;;5075003;28;20033;-52
2021/11/04 14:45:00;;;;;;;1.98;1.60;;;;;;;;;;5055010;28;20028;-53